createdAt,value
2022-11-27T00:00:05.510Z,102788.44
2022-11-27T00:02:59.041Z,102788.97
2022-11-27T00:05:39.270Z,102788.91
2022-11-27T00:08:20.615Z,102779.50
2022-11-27T00:11:06.510Z,102782.97
2022-11-27T00:13:46.560Z,102787.38
2022-11-27T00:16:28.357Z,102777.09
2022-11-27T00:19:11.700Z,102785.97
2022-11-27T00:21:52.374Z,102787.84
2022-11-27T00:24:33.879Z,102777.47
2022-11-27T00:27:15.155Z,102780.19
2022-11-27T00:29:58.543Z,102775.03
2022-11-27T00:32:39.820Z,102773.16
2022-11-27T00:35:20.968Z,102771.25
2022-11-27T00:38:02.737Z,102760.81
2022-11-27T00:40:44.839Z,102755.28
2022-11-27T00:43:25.212Z,102739.22
2022-11-27T00:46:06.227Z,102742.69
2022-11-27T00:48:46.538Z,102748.69
2022-11-27T00:51:28.200Z,102755.72
2022-11-27T00:54:09.166Z,102756.56
2022-11-27T00:56:50.030Z,102765.28
2022-11-27T00:59:30.387Z,102764.38
2022-11-27T01:02:10.353Z,102765.28
2022-11-27T01:04:51.703Z,102768.75
2022-11-27T01:07:36.128Z,102765.97
2022-11-27T01:10:17.379Z,102758.81
2022-11-27T01:12:55.505Z,102768.28
2022-11-27T01:15:35.744Z,102762.13
2022-11-27T01:18:15.138Z,102762.97
2022-11-27T01:20:55.333Z,102762.09
2022-11-27T01:23:52.621Z,102765.34
2022-11-27T01:26:33.812Z,102769.75
2022-11-27T01:29:13.946Z,102776.84
2022-11-27T01:31:58.327Z,102784.66
2022-11-27T01:34:40.431Z,102777.78
2022-11-27T01:37:23.356Z,102772.38
2022-11-27T01:40:05.975Z,102774.03
2022-11-27T01:42:50.322Z,102771.31
2022-11-27T01:45:30.463Z,102774.78
2022-11-27T01:48:25.178Z,102775.53
2022-11-27T01:51:06.692Z,102770.41
2022-11-27T01:53:49.139Z,102772.00
2022-11-27T01:56:42.865Z,102771.97
2022-11-27T01:59:22.235Z,102769.97
2022-11-27T02:02:02.382Z,102770.78
2022-11-27T02:04:44.752Z,102782.91
2022-11-27T02:07:33.329Z,102781.06
2022-11-27T02:10:17.979Z,102771.34
2022-11-27T02:13:02.187Z,102774.00
2022-11-27T02:26:19.083Z,102711.31
2022-11-27T02:29:01.004Z,102715.50
2022-11-27T02:31:46.628Z,102712.75
2022-11-27T02:34:28.806Z,102715.38
2022-11-27T02:37:12.471Z,102730.19
2022-11-27T02:39:52.986Z,102724.91
2022-11-27T02:42:34.372Z,102721.50
2022-11-27T02:45:15.598Z,102711.97
2022-11-27T02:48:10.569Z,102710.31
2022-11-27T02:50:50.437Z,102712.94
2022-11-27T02:53:32.332Z,102713.66
2022-11-27T02:56:34.584Z,102708.53
2022-11-27T02:59:19.373Z,102705.06
2022-11-27T03:02:00.680Z,102701.53
2022-11-27T03:04:42.381Z,102700.78
2022-11-27T03:07:26.505Z,102696.44
2022-11-27T03:10:10.128Z,102697.38
2022-11-27T03:12:50.420Z,102697.44
2022-11-27T03:15:31.355Z,102684.53
2022-11-27T03:18:13.578Z,102682.94
2022-11-27T03:21:17.331Z,102673.53
2022-11-27T03:23:59.500Z,102671.31
2022-11-27T03:26:41.265Z,102658.28
2022-11-27T03:29:21.765Z,102651.59
2022-11-27T03:32:04.167Z,102654.44
2022-11-27T03:34:44.210Z,102648.53
2022-11-27T03:37:27.508Z,102644.47
2022-11-27T03:40:10.004Z,102629.03
2022-11-27T03:42:52.622Z,102630.88
2022-11-27T03:45:35.202Z,102632.84
2022-11-27T03:48:21.537Z,102636.47
2022-11-27T03:51:05.803Z,102644.44
2022-11-27T03:54:06.015Z,102641.69
2022-11-27T03:56:47.434Z,102645.97
2022-11-27T03:59:40.189Z,102652.03
2022-11-27T04:02:27.195Z,102660.59
2022-11-27T04:05:07.678Z,102663.16
2022-11-27T04:07:47.673Z,102670.84
2022-11-27T04:10:29.327Z,102664.69
2022-11-27T04:13:10.792Z,102678.66
2022-11-27T04:15:51.280Z,102668.91
2022-11-27T04:18:31.652Z,102667.94
2022-11-27T04:21:13.600Z,102671.47
2022-11-27T04:24:35.661Z,102686.03
2022-11-27T04:27:15.821Z,102674.53
2022-11-27T04:29:58.187Z,102676.19
2022-11-27T04:32:36.619Z,102671.84
2022-11-27T04:35:14.879Z,102664.09
2022-11-27T04:37:56.088Z,102669.13
2022-11-27T04:40:37.389Z,102653.41
2022-11-27T04:43:18.795Z,102649.19
2022-11-27T04:45:59.225Z,102641.47
2022-11-27T04:48:39.042Z,102638.03
2022-11-27T04:51:23.894Z,102626.84
2022-11-27T04:54:06.178Z,102615.75
2022-11-27T04:57:07.222Z,102608.97
2022-11-27T04:59:47.125Z,102600.34
2022-11-27T05:02:28.502Z,102603.19
2022-11-27T05:05:11.014Z,102584.16
2022-11-27T05:07:53.329Z,102583.53
2022-11-27T05:10:36.286Z,102590.53
2022-11-27T05:13:17.280Z,102578.47
2022-11-27T05:15:59.753Z,102575.16
2022-11-27T05:18:40.125Z,102562.16
2022-11-27T05:21:19.908Z,102550.13
2022-11-27T05:23:58.760Z,102551.09
2022-11-27T05:26:42.818Z,102545.06
2022-11-27T05:29:23.581Z,102537.31
2022-11-27T05:32:05.262Z,102545.16
2022-11-27T05:34:49.579Z,102544.44
2022-11-27T05:37:30.964Z,102551.16
2022-11-27T05:40:12.963Z,102556.72
2022-11-27T05:42:52.830Z,102536.78
2022-11-27T05:45:33.375Z,102543.84
2022-11-27T05:48:14.965Z,102551.03
2022-11-27T05:50:55.370Z,102543.31
2022-11-27T05:53:36.372Z,102544.25
2022-11-27T06:06:41.435Z,102492.47
2022-11-27T06:09:22.548Z,102501.34
2022-11-27T06:12:02.356Z,102504.00
2022-11-27T06:14:43.316Z,102507.63
2022-11-27T06:17:24.624Z,102506.94
2022-11-27T06:20:06.784Z,102504.47
2022-11-27T06:22:48.090Z,102499.34
2022-11-27T06:25:29.460Z,102495.97
2022-11-27T06:28:54.287Z,102517.84
2022-11-27T06:31:37.489Z,102522.91
2022-11-27T06:34:21.458Z,102529.56
2022-11-27T06:37:08.079Z,102535.91
2022-11-27T06:39:54.038Z,102536.97
2022-11-27T06:42:36.662Z,102542.94
2022-11-27T06:45:18.405Z,102559.13
2022-11-27T06:47:56.942Z,102569.44
2022-11-27T06:50:39.111Z,102574.25
2022-11-27T06:53:21.118Z,102571.94
2022-11-27T06:56:07.062Z,102577.69
2022-11-27T06:58:47.759Z,102569.72
2022-11-27T07:01:42.633Z,102568.16
2022-11-27T07:04:25.079Z,102565.53
2022-11-27T07:07:05.267Z,102570.50
2022-11-27T07:09:45.048Z,102556.41
2022-11-27T07:12:22.934Z,102552.19
2022-11-27T07:15:05.445Z,102542.91
2022-11-27T07:17:48.072Z,102534.84
2022-11-27T07:20:29.186Z,102525.75
2022-11-27T07:23:11.572Z,102514.13
2022-11-27T07:25:51.896Z,102513.75
2022-11-27T07:28:44.695Z,102492.47
2022-11-27T07:31:26.423Z,102484.00
2022-11-27T07:34:12.351Z,102466.47
2022-11-27T07:36:56.723Z,102455.44
2022-11-27T07:40:05.247Z,102428.47
2022-11-27T07:42:46.754Z,102408.84
2022-11-27T07:45:25.319Z,102386.88
2022-11-27T07:48:05.356Z,102372.63
2022-11-27T07:50:48.234Z,102349.94
2022-11-27T07:53:28.191Z,102328.06
2022-11-27T07:56:08.812Z,102316.84
2022-11-27T07:58:50.499Z,102313.50
2022-11-27T08:01:32.064Z,102304.69
2022-11-27T08:04:25.336Z,102292.41
2022-11-27T08:07:05.439Z,102300.22
2022-11-27T08:09:48.800Z,102294.03
2022-11-27T08:12:29.755Z,102305.34
2022-11-27T08:15:09.546Z,102308.59
2022-11-27T08:17:50.416Z,102311.84
2022-11-27T08:20:31.999Z,102307.91
2022-11-27T08:23:15.382Z,102316.81
2022-11-27T08:25:53.295Z,102302.59
2022-11-27T08:28:36.489Z,102295.00
2022-11-27T08:41:43.271Z,102139.28
2022-11-27T08:44:24.038Z,102119.84
2022-11-27T08:47:05.619Z,102093.28
2022-11-27T08:49:46.845Z,102071.13
2022-11-27T08:52:29.398Z,102031.53
2022-11-27T08:55:10.833Z,101995.38
2022-11-27T08:57:51.328Z,101960.91
2022-11-27T09:00:34.124Z,101945.63
2022-11-27T09:03:15.448Z,101917.44
2022-11-27T09:05:55.218Z,101887.97
2022-11-27T09:08:35.131Z,101856.84
2022-11-27T09:11:18.787Z,101834.47
2022-11-27T09:13:59.560Z,101803.28
2022-11-27T09:16:43.921Z,101774.03
2022-11-27T09:19:26.935Z,101755.22
2022-11-27T09:22:06.991Z,101721.75
2022-11-27T09:24:48.452Z,101694.56
2022-11-27T09:27:29.762Z,101668.97
2022-11-27T09:30:11.301Z,101640.81
2022-11-27T09:33:04.327Z,101619.53
2022-11-27T09:35:48.783Z,101595.09
2022-11-27T09:38:30.695Z,101585.19
2022-11-27T09:41:20.020Z,101566.25
2022-11-27T09:44:00.363Z,101549.03
2022-11-27T09:46:52.904Z,101554.63
2022-11-27T09:49:36.432Z,101539.28
2022-11-27T09:52:20.916Z,101538.88
2022-11-27T09:55:02.989Z,101522.66
2022-11-27T09:57:43.154Z,101515.22
2022-11-27T10:00:25.148Z,101502.34
2022-11-27T10:03:06.241Z,101480.56
2022-11-27T10:05:52.087Z,101460.00
2022-11-27T10:08:36.843Z,101433.19
2022-11-27T10:11:31.820Z,101412.75
2022-11-27T10:14:20.762Z,101393.84
2022-11-27T10:17:00.223Z,101380.00
2022-11-27T10:19:43.748Z,101371.56
2022-11-27T10:22:22.553Z,101352.00
2022-11-27T10:25:04.763Z,101339.22
2022-11-27T10:27:50.120Z,101329.28
2022-11-27T10:30:33.794Z,101319.97
2022-11-27T10:33:16.412Z,101314.47
2022-11-27T10:35:55.148Z,101303.44
2022-11-27T10:38:35.880Z,101290.03
2022-11-27T10:41:47.731Z,101287.19
2022-11-27T10:44:22.587Z,101264.75
2022-11-27T10:47:04.660Z,101265.25
2022-11-27T10:49:43.333Z,101250.16
2022-11-27T10:52:36.552Z,101247.03
2022-11-27T10:55:20.367Z,101250.16
2022-11-27T10:58:03.835Z,101240.31
2022-11-27T11:00:43.925Z,101237.44
2022-11-27T11:03:23.626Z,101228.47
2022-11-27T11:06:19.867Z,101229.09
2022-11-27T11:09:04.561Z,101228.97
2022-11-27T11:11:43.571Z,101226.94
2022-11-27T11:14:24.507Z,101222.00
2022-11-27T11:17:15.628Z,101225.28
2022-11-27T11:19:56.178Z,101219.16
2022-11-27T11:22:45.204Z,101220.84
2022-11-27T11:25:50.623Z,101214.00
2022-11-27T11:28:35.153Z,101213.53
2022-11-27T11:31:33.415Z,101203.22
2022-11-27T11:34:28.095Z,101195.38
2022-11-27T11:37:10.950Z,101191.44
2022-11-27T11:39:53.807Z,101194.91
2022-11-27T11:42:34.962Z,101183.00
2022-11-27T11:45:18.896Z,101182.41
2022-11-27T11:48:00.872Z,101181.31
2022-11-27T11:50:56.402Z,101196.09
2022-11-27T11:53:36.963Z,101462.81
2022-11-27T11:56:21.866Z,101461.75
2022-11-27T11:59:03.030Z,101465.47
2022-11-27T12:01:47.474Z,101466.72
2022-11-27T12:04:49.195Z,101461.03
2022-11-27T12:07:35.854Z,101457.19
2022-11-27T12:10:18.670Z,101450.00
2022-11-27T12:13:01.202Z,101441.34
2022-11-27T12:15:43.659Z,101443.16
2022-11-27T12:18:26.963Z,101436.78
2022-11-27T12:21:12.727Z,101422.34
2022-11-27T12:24:07.117Z,101429.06
2022-11-27T12:26:52.613Z,101436.78
2022-11-27T12:30:02.804Z,101426.47
2022-11-27T12:32:52.770Z,101425.34
2022-11-27T12:35:33.828Z,101419.47
2022-11-27T12:38:19.326Z,101413.00
2022-11-27T12:41:23.624Z,101402.16
2022-11-27T12:44:05.019Z,101403.59
2022-11-27T12:46:49.178Z,101409.38
2022-11-27T12:49:33.332Z,101405.41
2022-11-27T12:52:12.756Z,101404.56
2022-11-27T12:54:54.177Z,101399.03
2022-11-27T12:57:40.716Z,101392.56
2022-11-27T13:00:23.612Z,101397.84
2022-11-27T13:03:07.616Z,101388.81
2022-11-27T13:05:48.690Z,101398.44
2022-11-27T13:08:30.889Z,101391.00
2022-11-27T13:11:12.015Z,101393.75
2022-11-27T13:13:51.680Z,101387.03
2022-11-27T13:16:35.149Z,101392.81
2022-11-27T13:19:17.764Z,101382.44
2022-11-27T13:22:00.545Z,101378.22
2022-11-27T13:24:41.725Z,101373.78
2022-11-27T13:37:50.102Z,101308.78
2022-11-27T13:40:31.014Z,101302.03
2022-11-27T13:43:28.752Z,101295.31
2022-11-27T13:46:13.417Z,101286.88
2022-11-27T13:48:55.978Z,101285.44
2022-11-27T13:51:37.048Z,101276.53
2022-11-27T13:54:25.928Z,101272.91
2022-11-27T13:57:13.247Z,101269.09
2022-11-27T13:59:59.417Z,101261.53
2022-11-27T14:02:44.835Z,101261.66
2022-11-27T14:05:36.120Z,101260.44
2022-11-27T14:08:19.412Z,101259.47
2022-11-27T14:11:03.952Z,101259.72
2022-11-27T14:13:44.989Z,101250.19
2022-11-27T14:16:27.721Z,101258.25
2022-11-27T14:19:23.646Z,101265.97
2022-11-27T14:22:04.751Z,101263.81
2022-11-27T14:24:45.864Z,101259.38
2022-11-27T14:28:21.844Z,101256.69
2022-11-27T14:31:22.904Z,101250.09
2022-11-27T14:34:27.050Z,101252.38
2022-11-27T14:37:23.997Z,101241.19
2022-11-27T14:40:04.956Z,101236.03
2022-11-27T14:42:46.316Z,101226.53
2022-11-27T14:45:25.967Z,101222.56
2022-11-27T14:48:07.198Z,101211.88
2022-11-27T14:50:45.415Z,101206.69
2022-11-27T14:53:23.902Z,101200.56
2022-11-27T14:56:03.782Z,101196.81
2022-11-27T14:58:46.753Z,101196.22
2022-11-27T15:01:31.883Z,101185.66
2022-11-27T15:04:27.660Z,101188.28
2022-11-27T15:07:13.136Z,101187.69
2022-11-27T15:09:54.281Z,101193.56
2022-11-27T15:12:35.296Z,101190.78
2022-11-27T15:15:19.193Z,101175.91
2022-11-27T15:18:00.333Z,101179.88
2022-11-27T15:20:41.440Z,101177.22
2022-11-27T15:23:24.323Z,101174.69
2022-11-27T15:26:14.404Z,101167.84
2022-11-27T15:28:59.442Z,101171.47
2022-11-27T15:31:39.422Z,101169.06
2022-11-27T15:34:24.286Z,101166.75
2022-11-27T15:37:14.335Z,101165.66
2022-11-27T15:39:57.390Z,101170.47
2022-11-27T15:42:37.955Z,101170.47
2022-11-27T15:45:23.947Z,101156.78
2022-11-27T15:48:07.246Z,101157.84
2022-11-27T15:50:51.905Z,101157.47
2022-11-27T15:53:33.348Z,101139.34
2022-11-27T15:56:15.465Z,101144.84
2022-11-27T15:58:57.869Z,101148.31
2022-11-27T16:02:01.059Z,101144.69
2022-11-27T16:04:40.552Z,101144.81
2022-11-27T16:07:27.216Z,101146.84
2022-11-27T16:10:17.822Z,101144.09
2022-11-27T16:13:19.183Z,101142.03
2022-11-27T16:16:09.805Z,101149.25
2022-11-27T16:18:52.731Z,101155.69
2022-11-27T16:21:34.099Z,101151.16
2022-11-27T16:24:15.891Z,101141.88
2022-11-27T16:26:57.744Z,101141.03
2022-11-27T16:29:41.013Z,101121.72
2022-11-27T16:32:24.793Z,101124.66
2022-11-27T16:35:06.855Z,101117.72
2022-11-27T16:37:48.684Z,101112.19
2022-11-27T16:40:34.765Z,101116.97
2022-11-27T16:43:15.451Z,101115.66
2022-11-27T16:45:56.178Z,101121.91
2022-11-27T16:48:42.977Z,101114.34
2022-11-27T16:51:22.799Z,101112.53
2022-11-27T16:54:05.699Z,101108.59
2022-11-27T16:56:50.486Z,101099.09
2022-11-27T16:59:38.290Z,101102.47
2022-11-27T17:02:20.845Z,101094.22
2022-11-27T17:05:02.023Z,101095.91
2022-11-27T17:07:48.252Z,101083.44
2022-11-27T17:10:32.408Z,101078.16
2022-11-27T17:13:17.916Z,101085.97
2022-11-27T17:15:59.438Z,101082.97
2022-11-27T17:18:40.593Z,101086.91
2022-11-27T17:21:26.454Z,101086.09
2022-11-27T17:24:29.716Z,101096.56
2022-11-27T17:27:14.662Z,101079.28
2022-11-27T17:29:56.054Z,101069.91
2022-11-27T17:32:39.763Z,101065.72
2022-11-27T17:35:20.511Z,101060.44
2022-11-27T17:38:02.183Z,101044.69
2022-11-27T17:40:45.583Z,101049.88
2022-11-27T17:43:39.477Z,101033.41
2022-11-27T17:46:20.713Z,101035.44
2022-11-27T17:49:02.826Z,101055.84
2022-11-27T17:52:06.657Z,101056.31
2022-11-27T17:54:47.408Z,101056.19
2022-11-27T17:57:27.652Z,101057.41
2022-11-27T18:00:10.970Z,101048.63
2022-11-27T18:02:55.299Z,101042.50
2022-11-27T18:05:38.411Z,101023.19
2022-11-27T18:08:19.580Z,101015.50
2022-11-27T18:11:02.470Z,101023.44
2022-11-27T18:13:45.979Z,101032.78
2022-11-27T18:16:29.372Z,101040.13
2022-11-27T18:19:14.427Z,101040.72
2022-11-27T18:21:55.760Z,101046.97
2022-11-27T18:24:41.728Z,101030.88
2022-11-27T18:27:22.622Z,101029.56
2022-11-27T18:30:07.665Z,101027.75
2022-11-27T18:32:50.509Z,101029.69
2022-11-27T18:35:32.997Z,101029.44
2022-11-27T18:38:17.819Z,101026.19
2022-11-27T18:41:05.560Z,101024.88
2022-11-27T18:43:49.419Z,101021.16
2022-11-27T18:46:30.060Z,101023.19
2022-11-27T18:49:11.084Z,101016.47
2022-11-27T18:51:52.794Z,101011.44
2022-11-27T18:54:37.019Z,101008.56
2022-11-27T18:57:21.787Z,101006.41
2022-11-27T19:00:03.296Z,101019.34
2022-11-27T19:02:44.956Z,101019.47
2022-11-27T19:05:28.372Z,101010.59
2022-11-27T19:08:12.120Z,101005.44
2022-11-27T19:10:56.468Z,101011.69
2022-11-27T19:13:39.363Z,101009.97
2022-11-27T19:16:24.055Z,101005.16
2022-11-27T19:19:06.127Z,101013.69
2022-11-27T19:21:48.707Z,101009.13
2022-11-27T19:24:30.295Z,100998.22
2022-11-27T19:27:15.534Z,100999.06
2022-11-27T19:29:58.125Z,101011.41
2022-11-27T19:32:41.092Z,101006.84
2022-11-27T19:35:24.408Z,101003.13
2022-11-27T19:38:06.800Z,100996.78
2022-11-27T19:40:48.225Z,100987.41
2022-11-27T19:43:32.584Z,100991.50
2022-11-27T19:46:16.177Z,100987.66
2022-11-27T19:48:59.776Z,100986.94
2022-11-27T19:51:40.301Z,100983.94
2022-11-27T19:54:26.646Z,100999.28
2022-11-27T19:57:08.260Z,100995.69
2022-11-27T19:59:52.723Z,101010.44
2022-11-27T20:02:37.037Z,101025.81
2022-11-27T20:05:17.068Z,101011.88
2022-11-27T20:08:01.325Z,101007.69
2022-11-27T20:10:44.064Z,100999.66
2022-11-27T20:13:26.471Z,100990.16
2022-11-27T20:16:11.945Z,100993.78
2022-11-27T20:18:51.899Z,100998.94
2022-11-27T20:21:31.578Z,101004.09
2022-11-27T20:24:11.985Z,100993.19
2022-11-27T20:26:54.890Z,100993.91
2022-11-27T20:29:36.137Z,100994.03
2022-11-27T20:32:23.577Z,101001.13
2022-11-27T20:35:05.840Z,100999.19
2022-11-27T20:37:50.856Z,101000.88
2022-11-27T20:40:31.319Z,101002.81
2022-11-27T20:43:12.726Z,101009.97
2022-11-27T20:45:54.454Z,101006.41
2022-11-27T20:48:38.723Z,101006.41
2022-11-27T20:51:21.856Z,101000.84
2022-11-27T20:54:03.480Z,100995.56
2022-11-27T20:56:47.695Z,100994.84
2022-11-27T20:59:31.728Z,100991.25
2022-11-27T21:02:18.810Z,100987.88
2022-11-27T21:05:03.955Z,100984.78
2022-11-27T21:07:57.605Z,100972.91
2022-11-27T21:10:41.491Z,100973.75
2022-11-27T21:13:24.207Z,100970.97
2022-11-27T21:16:07.385Z,100972.53
2022-11-27T21:18:49.431Z,100971.22
2022-11-27T21:21:29.752Z,100975.41
2022-11-27T21:24:16.240Z,100965.69
2022-11-27T21:26:57.792Z,100972.06
2022-11-27T21:29:40.265Z,100972.28
2022-11-27T21:32:22.609Z,100965.59
2022-11-27T21:35:03.124Z,100960.50
2022-11-27T21:37:50.203Z,100963.38
2022-11-27T21:40:28.768Z,100964.94
2022-11-27T21:43:11.970Z,100957.41
2022-11-27T21:45:52.168Z,100964.22
2022-11-27T21:48:33.536Z,100953.56
2022-11-27T21:51:41.723Z,100953.06
2022-11-27T21:54:34.810Z,100952.13
2022-11-27T21:57:21.748Z,100949.97
2022-11-27T22:00:02.356Z,100946.00
2022-11-27T22:02:54.701Z,100948.28
2022-11-27T22:05:38.402Z,100936.75
2022-11-27T22:08:23.765Z,100935.53
2022-11-27T22:11:04.516Z,100926.66
2022-11-27T22:24:19.345Z,100891.66
2022-11-27T22:27:09.351Z,100899.78
2022-11-27T22:29:50.668Z,100907.81
2022-11-27T22:32:44.100Z,100896.63
2022-11-27T22:35:23.086Z,100896.41
2022-11-27T22:38:05.229Z,100893.38
2022-11-27T22:40:47.622Z,100892.31
2022-11-27T22:43:32.091Z,100893.97
2022-11-27T22:46:13.846Z,100887.47
2022-11-27T22:49:02.859Z,100872.34
2022-11-27T22:51:46.518Z,100870.69
2022-11-27T22:54:33.647Z,100855.41
2022-11-27T22:57:14.679Z,100849.66
2022-11-27T22:59:58.248Z,100843.19
2022-11-27T23:02:39.446Z,100825.31
2022-11-27T23:05:19.710Z,100829.84
2022-11-27T23:08:01.374Z,100816.66
2022-11-27T23:10:47.007Z,100821.44
2022-11-27T23:13:31.064Z,100816.50
2022-11-27T23:16:12.822Z,100823.06
2022-11-27T23:18:53.582Z,100767.75
2022-11-27T23:21:38.732Z,100778.19
2022-11-27T23:24:19.208Z,100789.19
2022-11-27T23:27:10.583Z,100810.53
2022-11-27T23:29:55.167Z,100823.72
2022-11-27T23:32:35.193Z,100828.72
2022-11-27T23:35:16.620Z,100838.47
2022-11-27T23:38:00.874Z,100836.69
2022-11-27T23:40:41.873Z,100849.25
2022-11-27T23:43:22.336Z,100852.41
2022-11-27T23:46:06.550Z,100850.50
2022-11-27T23:48:46.711Z,100865.13
2022-11-27T23:51:30.019Z,100857.94
2022-11-27T23:54:13.075Z,100858.16
2022-11-27T23:56:53.627Z,100856.25
2022-11-27T23:59:35.768Z,100851.94
